sensor_id;sensor_type;location;lat;lon;timestamp;P1;durP1;ratioP1;P2;durP2;ratioP2
16665;SDS011;8446;50.998;6.250;2023-03-05T00:00:44;2.58;;;0.85;;
16665;SDS011;8446;50.998;6.250;2023-03-05T00:03:13;5.85;;;1.40;;
16665;SDS011;8446;50.998;6.250;2023-03-05T00:05:40;4.57;;;1.30;;
16665;SDS011;8446;50.998;6.250;2023-03-05T00:08:07;3.17;;;1.20;;
16665;SDS011;8446;50.998;6.250;2023-03-05T00:10:34;1.90;;;1.20;;
16665;SDS011;8446;50.998;6.250;2023-03-05T00:13:02;4.78;;;1.55;;
16665;SDS011;8446;50.998;6.250;2023-03-05T00:15:29;1.15;;;1.05;;
16665;SDS011;8446;50.998;6.250;2023-03-05T00:17:56;3.60;;;0.98;;
16665;SDS011;8446;50.998;6.250;2023-03-05T00:20:24;4.50;;;1.20;;
16665;SDS011;8446;50.998;6.250;2023-03-05T00:22:51;10.07;;;1.20;;
16665;SDS011;8446;50.998;6.250;2023-03-05T00:25:18;4.25;;;1.83;;
16665;SDS011;8446;50.998;6.250;2023-03-05T00:27:46;4.05;;;1.33;;
16665;SDS011;8446;50.998;6.250;2023-03-05T00:30:13;2.35;;;1.20;;
16665;SDS011;8446;50.998;6.250;2023-03-05T00:32:40;3.47;;;1.90;;
16665;SDS011;8446;50.998;6.250;2023-03-05T00:35:07;1.40;;;1.17;;
16665;SDS011;8446;50.998;6.250;2023-03-05T00:37:36;4.88;;;1.65;;
16665;SDS011;8446;50.998;6.250;2023-03-05T00:40:03;6.45;;;1.52;;
16665;SDS011;8446;50.998;6.250;2023-03-05T00:42:30;7.03;;;1.55;;
16665;SDS011;8446;50.998;6.250;2023-03-05T00:45:02;4.40;;;1.65;;
16665;SDS011;8446;50.998;6.250;2023-03-05T00:47:30;2.88;;;1.42;;
16665;SDS011;8446;50.998;6.250;2023-03-05T00:49:57;3.05;;;1.35;;
16665;SDS011;8446;50.998;6.250;2023-03-05T00:52:24;1.73;;;1.40;;
16665;SDS011;8446;50.998;6.250;2023-03-05T00:54:52;3.83;;;1.35;;
16665;SDS011;8446;50.998;6.250;2023-03-05T00:57:19;4.82;;;1.77;;
16665;SDS011;8446;50.998;6.250;2023-03-05T00:59:47;11.50;;;1.20;;
16665;SDS011;8446;50.998;6.250;2023-03-05T01:02:14;6.45;;;1.58;;
16665;SDS011;8446;50.998;6.250;2023-03-05T01:04:41;3.30;;;1.23;;
16665;SDS011;8446;50.998;6.250;2023-03-05T01:07:11;3.42;;;1.35;;
16665;SDS011;8446;50.998;6.250;2023-03-05T01:09:38;5.47;;;1.50;;
16665;SDS011;8446;50.998;6.250;2023-03-05T01:12:07;5.47;;;1.48;;
16665;SDS011;8446;50.998;6.250;2023-03-05T01:14:34;2.33;;;1.42;;
16665;SDS011;8446;50.998;6.250;2023-03-05T01:17:01;6.05;;;1.80;;
16665;SDS011;8446;50.998;6.250;2023-03-05T01:19:28;5.28;;;1.40;;
16665;SDS011;8446;50.998;6.250;2023-03-05T01:21:55;6.97;;;1.60;;
16665;SDS011;8446;50.998;6.250;2023-03-05T01:24:22;4.13;;;1.80;;
16665;SDS011;8446;50.998;6.250;2023-03-05T01:26:50;3.17;;;1.50;;
16665;SDS011;8446;50.998;6.250;2023-03-05T01:29:18;3.40;;;1.42;;
16665;SDS011;8446;50.998;6.250;2023-03-05T01:31:45;7.88;;;1.55;;
16665;SDS011;8446;50.998;6.250;2023-03-05T01:34:12;3.28;;;1.10;;
16665;SDS011;8446;50.998;6.250;2023-03-05T01:36:41;1.73;;;1.20;;
16665;SDS011;8446;50.998;6.250;2023-03-05T01:39:08;8.48;;;2.22;;
16665;SDS011;8446;50.998;6.250;2023-03-05T01:41:35;8.60;;;2.30;;
16665;SDS011;8446;50.998;6.250;2023-03-05T01:44:02;7.53;;;2.30;;
16665;SDS011;8446;50.998;6.250;2023-03-05T01:46:31;5.95;;;2.85;;
16665;SDS011;8446;50.998;6.250;2023-03-05T01:49:03;4.47;;;1.80;;
16665;SDS011;8446;50.998;6.250;2023-03-05T01:51:32;2.55;;;1.48;;
16665;SDS011;8446;50.998;6.250;2023-03-05T01:54:01;8.02;;;1.67;;
16665;SDS011;8446;50.998;6.250;2023-03-05T01:56:29;11.65;;;2.05;;
16665;SDS011;8446;50.998;6.250;2023-03-05T01:58:56;7.13;;;1.98;;
16665;SDS011;8446;50.998;6.250;2023-03-05T02:01:28;8.27;;;3.38;;
16665;SDS011;8446;50.998;6.250;2023-03-05T02:03:57;6.68;;;1.67;;
16665;SDS011;8446;50.998;6.250;2023-03-05T02:06:24;6.85;;;1.63;;
16665;SDS011;8446;50.998;6.250;2023-03-05T02:08:51;5.80;;;1.98;;
16665;SDS011;8446;50.998;6.250;2023-03-05T02:11:18;7.68;;;2.15;;
16665;SDS011;8446;50.998;6.250;2023-03-05T02:13:45;5.18;;;1.55;;
16665;SDS011;8446;50.998;6.250;2023-03-05T02:16:13;4.25;;;1.90;;
16665;SDS011;8446;50.998;6.250;2023-03-05T02:18:40;11.52;;;1.70;;
16665;SDS011;8446;50.998;6.250;2023-03-05T02:21:08;4.05;;;1.55;;
16665;SDS011;8446;50.998;6.250;2023-03-05T02:23:36;5.60;;;1.50;;
16665;SDS011;8446;50.998;6.250;2023-03-05T02:26:04;9.13;;;1.35;;
16665;SDS011;8446;50.998;6.250;2023-03-05T02:28:33;8.18;;;2.72;;
16665;SDS011;8446;50.998;6.250;2023-03-05T02:31:01;6.88;;;1.70;;
16665;SDS011;8446;50.998;6.250;2023-03-05T02:33:33;11.15;;;1.63;;
16665;SDS011;8446;50.998;6.250;2023-03-05T02:36:01;11.55;;;1.95;;
16665;SDS011;8446;50.998;6.250;2023-03-05T02:38:29;5.90;;;1.90;;
16665;SDS011;8446;50.998;6.250;2023-03-05T02:40:56;4.28;;;1.60;;
16665;SDS011;8446;50.998;6.250;2023-03-05T02:43:24;7.15;;;1.67;;
16665;SDS011;8446;50.998;6.250;2023-03-05T02:45:51;4.95;;;1.45;;
16665;SDS011;8446;50.998;6.250;2023-03-05T02:48:18;9.15;;;1.80;;
16665;SDS011;8446;50.998;6.250;2023-03-05T02:50:45;11.60;;;2.20;;
16665;SDS011;8446;50.998;6.250;2023-03-05T02:53:13;4.60;;;1.58;;
16665;SDS011;8446;50.998;6.250;2023-03-05T02:55:41;8.13;;;2.05;;
16665;SDS011;8446;50.998;6.250;2023-03-05T02:58:11;6.90;;;1.83;;
16665;SDS011;8446;50.998;6.250;2023-03-05T03:00:39;8.25;;;1.77;;
16665;SDS011;8446;50.998;6.250;2023-03-05T03:03:06;9.90;;;1.70;;
16665;SDS011;8446;50.998;6.250;2023-03-05T03:05:33;5.85;;;1.42;;
16665;SDS011;8446;50.998;6.250;2023-03-05T03:08:01;7.35;;;2.30;;
16665;SDS011;8446;50.998;6.250;2023-03-05T03:10:28;3.83;;;1.30;;
16665;SDS011;8446;50.998;6.250;2023-03-05T03:12:56;10.73;;;1.80;;
16665;SDS011;8446;50.998;6.250;2023-03-05T03:15:23;13.25;;;2.03;;
16665;SDS011;8446;50.998;6.250;2023-03-05T03:17:50;7.10;;;1.65;;
16665;SDS011;8446;50.998;6.250;2023-03-05T03:20:18;3.08;;;1.45;;
16665;SDS011;8446;50.998;6.250;2023-03-05T03:22:45;12.27;;;1.58;;
16665;SDS011;8446;50.998;6.250;2023-03-05T03:25:13;2.47;;;1.15;;
16665;SDS011;8446;50.998;6.250;2023-03-05T03:27:40;6.82;;;1.67;;
16665;SDS011;8446;50.998;6.250;2023-03-05T03:30:10;8.73;;;1.90;;
16665;SDS011;8446;50.998;6.250;2023-03-05T03:32:37;9.52;;;1.70;;
16665;SDS011;8446;50.998;6.250;2023-03-05T03:35:05;8.10;;;1.42;;
16665;SDS011;8446;50.998;6.250;2023-03-05T03:37:32;3.17;;;1.77;;
16665;SDS011;8446;50.998;6.250;2023-03-05T03:39:59;3.05;;;1.85;;
16665;SDS011;8446;50.998;6.250;2023-03-05T03:42:26;16.60;;;2.30;;
16665;SDS011;8446;50.998;6.250;2023-03-05T03:44:53;6.82;;;1.70;;
16665;SDS011;8446;50.998;6.250;2023-03-05T03:47:21;6.28;;;2.00;;
16665;SDS011;8446;50.998;6.250;2023-03-05T03:49:52;8.40;;;2.42;;
16665;SDS011;8446;50.998;6.250;2023-03-05T03:52:19;5.85;;;1.50;;
16665;SDS011;8446;50.998;6.250;2023-03-05T03:54:47;5.85;;;2.10;;
16665;SDS011;8446;50.998;6.250;2023-03-05T03:57:14;8.95;;;2.17;;
16665;SDS011;8446;50.998;6.250;2023-03-05T03:59:41;8.25;;;1.98;;
16665;SDS011;8446;50.998;6.250;2023-03-05T04:02:10;4.40;;;1.70;;
16665;SDS011;8446;50.998;6.250;2023-03-05T04:04:38;5.55;;;1.55;;
16665;SDS011;8446;50.998;6.250;2023-03-05T04:07:05;5.13;;;1.48;;
16665;SDS011;8446;50.998;6.250;2023-03-05T04:09:32;8.45;;;2.08;;
16665;SDS011;8446;50.998;6.250;2023-03-05T04:11:59;7.88;;;1.80;;
16665;SDS011;8446;50.998;6.250;2023-03-05T04:14:26;12.40;;;1.67;;
16665;SDS011;8446;50.998;6.250;2023-03-05T04:16:54;7.57;;;2.10;;
16665;SDS011;8446;50.998;6.250;2023-03-05T04:19:21;8.55;;;1.92;;
16665;SDS011;8446;50.998;6.250;2023-03-05T04:21:49;10.25;;;1.63;;
16665;SDS011;8446;50.998;6.250;2023-03-05T04:24:16;3.22;;;1.45;;
16665;SDS011;8446;50.998;6.250;2023-03-05T04:26:43;7.72;;;1.75;;
16665;SDS011;8446;50.998;6.250;2023-03-05T04:29:10;7.47;;;2.17;;
16665;SDS011;8446;50.998;6.250;2023-03-05T04:31:37;9.68;;;2.30;;
16665;SDS011;8446;50.998;6.250;2023-03-05T04:34:05;3.17;;;1.85;;
16665;SDS011;8446;50.998;6.250;2023-03-05T04:36:32;8.40;;;2.38;;
16665;SDS011;8446;50.998;6.250;2023-03-05T04:39:00;5.88;;;2.95;;
16665;SDS011;8446;50.998;6.250;2023-03-05T04:41:27;6.60;;;2.25;;
16665;SDS011;8446;50.998;6.250;2023-03-05T04:43:54;4.40;;;2.10;;
16665;SDS011;8446;50.998;6.250;2023-03-05T04:46:21;16.73;;;2.95;;
16665;SDS011;8446;50.998;6.250;2023-03-05T04:48:49;5.82;;;2.03;;
16665;SDS011;8446;50.998;6.250;2023-03-05T04:51:16;7.20;;;2.10;;
16665;SDS011;8446;50.998;6.250;2023-03-05T04:53:43;11.23;;;2.20;;
16665;SDS011;8446;50.998;6.250;2023-03-05T04:56:11;5.05;;;2.90;;
16665;SDS011;8446;50.998;6.250;2023-03-05T04:58:38;6.70;;;2.53;;
16665;SDS011;8446;50.998;6.250;2023-03-05T05:01:06;19.20;;;2.95;;
16665;SDS011;8446;50.998;6.250;2023-03-05T05:03:33;2.65;;;2.10;;
16665;SDS011;8446;50.998;6.250;2023-03-05T05:06:00;7.07;;;2.30;;
16665;SDS011;8446;50.998;6.250;2023-03-05T05:08:27;18.40;;;2.60;;
16665;SDS011;8446;50.998;6.250;2023-03-05T05:10:55;7.85;;;2.60;;
16665;SDS011;8446;50.998;6.250;2023-03-05T05:13:24;12.35;;;2.58;;
16665;SDS011;8446;50.998;6.250;2023-03-05T05:15:51;7.45;;;1.98;;
16665;SDS011;8446;50.998;6.250;2023-03-05T05:18:18;15.60;;;3.20;;
16665;SDS011;8446;50.998;6.250;2023-03-05T05:20:45;13.55;;;2.60;;
16665;SDS011;8446;50.998;6.250;2023-03-05T05:23:13;2.90;;;1.80;;
16665;SDS011;8446;50.998;6.250;2023-03-05T05:25:40;2.97;;;2.08;;
16665;SDS011;8446;50.998;6.250;2023-03-05T05:28:08;4.40;;;2.28;;
16665;SDS011;8446;50.998;6.250;2023-03-05T05:30:37;8.82;;;2.15;;
16665;SDS011;8446;50.998;6.250;2023-03-05T05:33:04;5.15;;;2.10;;
16665;SDS011;8446;50.998;6.250;2023-03-05T05:35:31;16.70;;;2.97;;
16665;SDS011;8446;50.998;6.250;2023-03-05T05:37:58;4.95;;;2.20;;
16665;SDS011;8446;50.998;6.250;2023-03-05T05:40:25;3.47;;;1.92;;
16665;SDS011;8446;50.998;6.250;2023-03-05T05:42:52;2.20;;;1.70;;
16665;SDS011;8446;50.998;6.250;2023-03-05T05:45:19;2.35;;;1.60;;
16665;SDS011;8446;50.998;6.250;2023-03-05T05:47:48;2.97;;;1.92;;
16665;SDS011;8446;50.998;6.250;2023-03-05T05:50:15;7.75;;;1.73;;
16665;SDS011;8446;50.998;6.250;2023-03-05T05:52:42;1.90;;;1.60;;
16665;SDS011;8446;50.998;6.250;2023-03-05T05:55:10;5.63;;;2.17;;
16665;SDS011;8446;50.998;6.250;2023-03-05T05:57:37;3.28;;;1.75;;
16665;SDS011;8446;50.998;6.250;2023-03-05T06:00:06;5.90;;;1.63;;
16665;SDS011;8446;50.998;6.250;2023-03-05T06:02:36;5.63;;;1.70;;
16665;SDS011;8446;50.998;6.250;2023-03-05T06:05:05;3.22;;;1.60;;
16665;SDS011;8446;50.998;6.250;2023-03-05T06:07:34;2.72;;;1.73;;
16665;SDS011;8446;50.998;6.250;2023-03-05T06:10:01;7.32;;;1.80;;
16665;SDS011;8446;50.998;6.250;2023-03-05T06:12:28;3.17;;;1.75;;
16665;SDS011;8446;50.998;6.250;2023-03-05T06:14:56;4.40;;;1.73;;
16665;SDS011;8446;50.998;6.250;2023-03-05T06:17:23;2.30;;;1.63;;
16665;SDS011;8446;50.998;6.250;2023-03-05T06:19:52;8.50;;;2.90;;
16665;SDS011;8446;50.998;6.250;2023-03-05T06:22:21;4.22;;;1.90;;
16665;SDS011;8446;50.998;6.250;2023-03-05T06:24:48;6.97;;;2.40;;
16665;SDS011;8446;50.998;6.250;2023-03-05T06:27:15;4.78;;;1.80;;
16665;SDS011;8446;50.998;6.250;2023-03-05T06:29:42;2.40;;;2.03;;
16665;SDS011;8446;50.998;6.250;2023-03-05T06:32:09;8.63;;;2.20;;
16665;SDS011;8446;50.998;6.250;2023-03-05T06:34:37;3.72;;;2.58;;
16665;SDS011;8446;50.998;6.250;2023-03-05T06:37:04;9.73;;;2.53;;
16665;SDS011;8446;50.998;6.250;2023-03-05T06:39:33;4.90;;;2.20;;
16665;SDS011;8446;50.998;6.250;2023-03-05T06:42:00;2.00;;;1.60;;
16665;SDS011;8446;50.998;6.250;2023-03-05T06:44:27;10.48;;;2.15;;
16665;SDS011;8446;50.998;6.250;2023-03-05T06:46:54;5.03;;;2.25;;
16665;SDS011;8446;50.998;6.250;2023-03-05T06:49:21;2.78;;;1.73;;
16665;SDS011;8446;50.998;6.250;2023-03-05T06:51:48;9.50;;;2.00;;
16665;SDS011;8446;50.998;6.250;2023-03-05T06:54:16;8.88;;;2.40;;
16665;SDS011;8446;50.998;6.250;2023-03-05T06:56:45;10.80;;;2.63;;
16665;SDS011;8446;50.998;6.250;2023-03-05T06:59:13;5.80;;;2.70;;
16665;SDS011;8446;50.998;6.250;2023-03-05T07:01:40;17.30;;;3.22;;
16665;SDS011;8446;50.998;6.250;2023-03-05T07:04:08;11.80;;;2.55;;
16665;SDS011;8446;50.998;6.250;2023-03-05T07:06:37;5.45;;;2.55;;
16665;SDS011;8446;50.998;6.250;2023-03-05T07:09:06;7.63;;;2.95;;
16665;SDS011;8446;50.998;6.250;2023-03-05T07:11:34;8.82;;;2.72;;
16665;SDS011;8446;50.998;6.250;2023-03-05T07:14:02;10.32;;;2.80;;
16665;SDS011;8446;50.998;6.250;2023-03-05T07:16:30;6.85;;;3.15;;
16665;SDS011;8446;50.998;6.250;2023-03-05T07:18:58;6.40;;;2.05;;
16665;SDS011;8446;50.998;6.250;2023-03-05T07:21:27;3.60;;;2.30;;
16665;SDS011;8446;50.998;6.250;2023-03-05T07:23:57;4.82;;;2.55;;
16665;SDS011;8446;50.998;6.250;2023-03-05T07:26:25;5.00;;;2.35;;
16665;SDS011;8446;50.998;6.250;2023-03-05T07:28:52;12.13;;;3.40;;
16665;SDS011;8446;50.998;6.250;2023-03-05T07:31:21;11.25;;;2.50;;
16665;SDS011;8446;50.998;6.250;2023-03-05T07:33:51;6.97;;;2.92;;
16665;SDS011;8446;50.998;6.250;2023-03-05T07:36:19;4.80;;;2.53;;
16665;SDS011;8446;50.998;6.250;2023-03-05T07:38:46;7.45;;;2.90;;
16665;SDS011;8446;50.998;6.250;2023-03-05T07:41:14;7.43;;;2.50;;
16665;SDS011;8446;50.998;6.250;2023-03-05T07:43:43;7.82;;;3.00;;
16665;SDS011;8446;50.998;6.250;2023-03-05T07:46:11;8.05;;;2.95;;
16665;SDS011;8446;50.998;6.250;2023-03-05T07:48:41;8.40;;;3.20;;
16665;SDS011;8446;50.998;6.250;2023-03-05T07:51:09;7.10;;;2.38;;
16665;SDS011;8446;50.998;6.250;2023-03-05T07:53:38;12.57;;;3.65;;
16665;SDS011;8446;50.998;6.250;2023-03-05T07:56:06;13.27;;;3.10;;
16665;SDS011;8446;50.998;6.250;2023-03-05T07:58:33;7.22;;;2.92;;
16665;SDS011;8446;50.998;6.250;2023-03-05T08:01:00;12.40;;;4.20;;
16665;SDS011;8446;50.998;6.250;2023-03-05T08:03:28;16.52;;;2.75;;
16665;SDS011;8446;50.998;6.250;2023-03-05T08:05:56;9.32;;;3.60;;
16665;SDS011;8446;50.998;6.250;2023-03-05T08:08:23;10.15;;;3.20;;
16665;SDS011;8446;50.998;6.250;2023-03-05T08:10:51;7.25;;;2.95;;
16665;SDS011;8446;50.998;6.250;2023-03-05T08:13:18;8.52;;;3.10;;
16665;SDS011;8446;50.998;6.250;2023-03-05T08:15:45;10.30;;;3.47;;
16665;SDS011;8446;50.998;6.250;2023-03-05T08:18:12;9.32;;;3.50;;
16665;SDS011;8446;50.998;6.250;2023-03-05T08:20:42;6.03;;;3.42;;
16665;SDS011;8446;50.998;6.250;2023-03-05T08:23:11;11.73;;;3.10;;
16665;SDS011;8446;50.998;6.250;2023-03-05T08:25:38;4.28;;;2.83;;
16665;SDS011;8446;50.998;6.250;2023-03-05T08:28:05;10.77;;;3.25;;
16665;SDS011;8446;50.998;6.250;2023-03-05T08:30:32;15.15;;;3.70;;
16665;SDS011;8446;50.998;6.250;2023-03-05T08:32:59;4.85;;;2.75;;
16665;SDS011;8446;50.998;6.250;2023-03-05T08:35:27;5.38;;;3.33;;
16665;SDS011;8446;50.998;6.250;2023-03-05T08:37:54;12.60;;;3.22;;
16665;SDS011;8446;50.998;6.250;2023-03-05T08:40:22;9.68;;;3.35;;
16665;SDS011;8446;50.998;6.250;2023-03-05T08:42:49;7.78;;;3.60;;
16665;SDS011;8446;50.998;6.250;2023-03-05T08:45:16;15.20;;;3.55;;
16665;SDS011;8446;50.998;6.250;2023-03-05T08:47:44;10.20;;;3.40;;
16665;SDS011;8446;50.998;6.250;2023-03-05T08:50:11;5.78;;;3.40;;
16665;SDS011;8446;50.998;6.250;2023-03-05T08:52:38;11.25;;;4.30;;
16665;SDS011;8446;50.998;6.250;2023-03-05T08:55:05;12.23;;;3.70;;
16665;SDS011;8446;50.998;6.250;2023-03-05T08:57:34;5.30;;;2.58;;
16665;SDS011;8446;50.998;6.250;2023-03-05T09:00:01;4.47;;;2.67;;
16665;SDS011;8446;50.998;6.250;2023-03-05T09:02:28;10.32;;;3.42;;
16665;SDS011;8446;50.998;6.250;2023-03-05T09:04:55;7.03;;;3.80;;
16665;SDS011;8446;50.998;6.250;2023-03-05T09:07:22;7.63;;;3.95;;
16665;SDS011;8446;50.998;6.250;2023-03-05T09:09:50;6.63;;;3.20;;
16665;SDS011;8446;50.998;6.250;2023-03-05T09:12:17;6.30;;;4.07;;
16665;SDS011;8446;50.998;6.250;2023-03-05T09:14:45;11.45;;;4.07;;
16665;SDS011;8446;50.998;6.250;2023-03-05T09:17:12;19.20;;;4.30;;
16665;SDS011;8446;50.998;6.250;2023-03-05T09:19:40;13.98;;;4.95;;
16665;SDS011;8446;50.998;6.250;2023-03-05T09:22:07;11.70;;;3.75;;
16665;SDS011;8446;50.998;6.250;2023-03-05T09:24:35;11.20;;;5.57;;
16665;SDS011;8446;50.998;6.250;2023-03-05T09:27:02;22.25;;;5.57;;
16665;SDS011;8446;50.998;6.250;2023-03-05T09:29:29;10.00;;;5.28;;
16665;SDS011;8446;50.998;6.250;2023-03-05T09:31:58;10.55;;;5.53;;
16665;SDS011;8446;50.998;6.250;2023-03-05T09:34:25;12.10;;;5.90;;
16665;SDS011;8446;50.998;6.250;2023-03-05T09:36:52;11.00;;;5.40;;
16665;SDS011;8446;50.998;6.250;2023-03-05T09:39:19;10.15;;;6.55;;
16665;SDS011;8446;50.998;6.250;2023-03-05T09:42:00;9.55;;;5.90;;
16665;SDS011;8446;50.998;6.250;2023-03-05T09:44:34;8.23;;;5.78;;
16665;SDS011;8446;50.998;6.250;2023-03-05T09:47:11;7.20;;;4.72;;
16665;SDS011;8446;50.998;6.250;2023-03-05T09:49:45;4.53;;;3.92;;
16665;SDS011;8446;50.998;6.250;2023-03-05T09:52:17;6.55;;;3.97;;
16665;SDS011;8446;50.998;6.250;2023-03-05T09:54:46;10.93;;;4.20;;
16665;SDS011;8446;50.998;6.250;2023-03-05T09:57:16;5.35;;;3.60;;
16665;SDS011;8446;50.998;6.250;2023-03-05T09:59:45;7.10;;;4.18;;
16665;SDS011;8446;50.998;6.250;2023-03-05T10:02:17;8.90;;;4.82;;
16665;SDS011;8446;50.998;6.250;2023-03-05T10:04:46;6.07;;;4.55;;
16665;SDS011;8446;50.998;6.250;2023-03-05T10:07:16;7.30;;;4.93;;
16665;SDS011;8446;50.998;6.250;2023-03-05T10:09:45;20.25;;;7.25;;
16665;SDS011;8446;50.998;6.250;2023-03-05T10:12:17;11.73;;;4.75;;
16665;SDS011;8446;50.998;6.250;2023-03-05T10:14:47;6.18;;;4.82;;
16665;SDS011;8446;50.998;6.250;2023-03-05T10:20:13;12.55;;;6.88;;
16665;SDS011;8446;50.998;6.250;2023-03-05T10:22:44;11.15;;;7.00;;
16665;SDS011;8446;50.998;6.250;2023-03-05T10:25:17;11.52;;;7.65;;
16665;SDS011;8446;50.998;6.250;2023-03-05T10:27:46;15.25;;;7.47;;
16665;SDS011;8446;50.998;6.250;2023-03-05T10:30:22;15.60;;;7.55;;
16665;SDS011;8446;50.998;6.250;2023-03-05T10:32:54;7.65;;;5.43;;
16665;SDS011;8446;50.998;6.250;2023-03-05T10:35:39;12.15;;;6.10;;
16665;SDS011;8446;50.998;6.250;2023-03-05T10:38:13;11.88;;;7.10;;
16665;SDS011;8446;50.998;6.250;2023-03-05T10:40:43;14.25;;;7.28;;
16665;SDS011;8446;50.998;6.250;2023-03-05T10:43:14;12.57;;;6.50;;
16665;SDS011;8446;50.998;6.250;2023-03-05T10:45:44;18.27;;;8.75;;
16665;SDS011;8446;50.998;6.250;2023-03-05T10:48:14;15.43;;;7.75;;
16665;SDS011;8446;50.998;6.250;2023-03-05T10:50:45;13.20;;;7.80;;
16665;SDS011;8446;50.998;6.250;2023-03-05T10:53:14;20.05;;;8.00;;
16665;SDS011;8446;50.998;6.250;2023-03-05T10:55:42;17.02;;;7.15;;
16665;SDS011;8446;50.998;6.250;2023-03-05T10:58:10;17.15;;;7.00;;
16665;SDS011;8446;50.998;6.250;2023-03-05T11:00:39;12.00;;;6.88;;
16665;SDS011;8446;50.998;6.250;2023-03-05T11:03:06;12.07;;;7.80;;
16665;SDS011;8446;50.998;6.250;2023-03-05T11:05:35;9.25;;;5.82;;
16665;SDS011;8446;50.998;6.250;2023-03-05T11:08:18;12.95;;;7.00;;
16665;SDS011;8446;50.998;6.250;2023-03-05T11:10:51;12.43;;;7.28;;
16665;SDS011;8446;50.998;6.250;2023-03-05T11:13:28;10.57;;;7.25;;
16665;SDS011;8446;50.998;6.250;2023-03-05T11:15:58;10.13;;;7.20;;
16665;SDS011;8446;50.998;6.250;2023-03-05T11:18:25;8.15;;;5.75;;
16665;SDS011;8446;50.998;6.250;2023-03-05T11:21:05;10.10;;;7.15;;
16665;SDS011;8446;50.998;6.250;2023-03-05T11:23:34;8.00;;;5.72;;
16665;SDS011;8446;50.998;6.250;2023-03-05T11:26:02;11.80;;;6.53;;
16665;SDS011;8446;50.998;6.250;2023-03-05T11:28:31;12.35;;;7.13;;
16665;SDS011;8446;50.998;6.250;2023-03-05T11:31:00;9.85;;;6.72;;
16665;SDS011;8446;50.998;6.250;2023-03-05T11:33:28;10.35;;;5.70;;
16665;SDS011;8446;50.998;6.250;2023-03-05T11:36:09;8.93;;;5.43;;
16665;SDS011;8446;50.998;6.250;2023-03-05T11:38:44;7.70;;;5.18;;
16665;SDS011;8446;50.998;6.250;2023-03-05T11:41:12;5.78;;;4.10;;
16665;SDS011;8446;50.998;6.250;2023-03-05T11:43:39;7.00;;;4.72;;
16665;SDS011;8446;50.998;6.250;2023-03-05T11:46:09;12.68;;;5.18;;
16665;SDS011;8446;50.998;6.250;2023-03-05T11:48:38;9.35;;;4.68;;
16665;SDS011;8446;50.998;6.250;2023-03-05T11:51:07;8.43;;;4.93;;
16665;SDS011;8446;50.998;6.250;2023-03-05T11:53:35;7.47;;;5.18;;
16665;SDS011;8446;50.998;6.250;2023-03-05T11:56:05;6.68;;;4.82;;
16665;SDS011;8446;50.998;6.250;2023-03-05T11:58:40;7.10;;;3.72;;
16665;SDS011;8446;50.998;6.250;2023-03-05T12:01:12;4.78;;;3.10;;
16665;SDS011;8446;50.998;6.250;2023-03-05T12:03:40;5.47;;;3.80;;
16665;SDS011;8446;50.998;6.250;2023-03-05T12:06:09;6.53;;;3.88;;
16665;SDS011;8446;50.998;6.250;2023-03-05T12:08:40;4.30;;;3.42;;
16665;SDS011;8446;50.998;6.250;2023-03-05T12:11:11;5.28;;;3.08;;
16665;SDS011;8446;50.998;6.250;2023-03-05T12:13:40;5.28;;;3.00;;
16665;SDS011;8446;50.998;6.250;2023-03-05T12:16:11;3.85;;;3.13;;
16665;SDS011;8446;50.998;6.250;2023-03-05T12:18:44;3.45;;;2.40;;
16665;SDS011;8446;50.998;6.250;2023-03-05T12:21:16;6.88;;;3.38;;
16665;SDS011;8446;50.998;6.250;2023-03-05T12:23:53;5.50;;;3.30;;
16665;SDS011;8446;50.998;6.250;2023-03-05T12:29:11;3.72;;;3.30;;
16665;SDS011;8446;50.998;6.250;2023-03-05T12:31:51;5.88;;;3.53;;
16665;SDS011;8446;50.998;6.250;2023-03-05T12:40:10;5.75;;;5.15;;
16665;SDS011;8446;50.998;6.250;2023-03-05T12:42:52;3.55;;;2.50;;
16665;SDS011;8446;50.998;6.250;2023-03-05T12:45:24;7.13;;;3.15;;
16665;SDS011;8446;50.998;6.250;2023-03-05T12:50:48;6.75;;;3.30;;
16665;SDS011;8446;50.998;6.250;2023-03-05T12:53:17;3.60;;;3.20;;
16665;SDS011;8446;50.998;6.250;2023-03-05T12:55:48;3.20;;;2.90;;
16665;SDS011;8446;50.998;6.250;2023-03-05T12:58:18;4.70;;;3.35;;
16665;SDS011;8446;50.998;6.250;2023-03-05T13:00:47;6.13;;;2.90;;
16665;SDS011;8446;50.998;6.250;2023-03-05T13:03:16;3.25;;;2.95;;
16665;SDS011;8446;50.998;6.250;2023-03-05T13:05:47;6.68;;;3.63;;
16665;SDS011;8446;50.998;6.250;2023-03-05T13:08:18;3.60;;;3.30;;
16665;SDS011;8446;50.998;6.250;2023-03-05T13:10:49;10.20;;;4.70;;
16665;SDS011;8446;50.998;6.250;2023-03-05T13:13:17;7.57;;;3.25;;
16665;SDS011;8446;50.998;6.250;2023-03-05T13:15:45;3.95;;;2.80;;
16665;SDS011;8446;50.998;6.250;2023-03-05T13:18:17;3.60;;;3.22;;
16665;SDS011;8446;50.998;6.250;2023-03-05T13:20:45;7.97;;;3.55;;
16665;SDS011;8446;50.998;6.250;2023-03-05T13:23:17;6.20;;;3.83;;
16665;SDS011;8446;50.998;6.250;2023-03-05T13:25:45;7.25;;;3.80;;
16665;SDS011;8446;50.998;6.250;2023-03-05T13:28:21;6.70;;;4.20;;
16665;SDS011;8446;50.998;6.250;2023-03-05T13:30:49;6.63;;;4.25;;
16665;SDS011;8446;50.998;6.250;2023-03-05T13:33:19;9.48;;;5.00;;
16665;SDS011;8446;50.998;6.250;2023-03-05T13:35:48;8.27;;;4.80;;
16665;SDS011;8446;50.998;6.250;2023-03-05T13:38:22;7.80;;;5.40;;
16665;SDS011;8446;50.998;6.250;2023-03-05T13:40:59;7.63;;;4.85;;
16665;SDS011;8446;50.998;6.250;2023-03-05T13:43:27;6.40;;;5.05;;
16665;SDS011;8446;50.998;6.250;2023-03-05T13:45:54;6.00;;;4.95;;
16665;SDS011;8446;50.998;6.250;2023-03-05T13:48:24;8.98;;;5.40;;
16665;SDS011;8446;50.998;6.250;2023-03-05T13:50:52;6.65;;;5.28;;
16665;SDS011;8446;50.998;6.250;2023-03-05T13:53:21;10.10;;;6.22;;
16665;SDS011;8446;50.998;6.250;2023-03-05T13:55:49;8.65;;;5.35;;
16665;SDS011;8446;50.998;6.250;2023-03-05T14:01:02;7.65;;;6.15;;
16665;SDS011;8446;50.998;6.250;2023-03-05T14:03:31;7.57;;;5.35;;
16665;SDS011;8446;50.998;6.250;2023-03-05T14:05:59;9.38;;;6.75;;
16665;SDS011;8446;50.998;6.250;2023-03-05T14:08:26;9.13;;;6.30;;
16665;SDS011;8446;50.998;6.250;2023-03-05T14:11:11;48.83;;;7.85;;
16665;SDS011;8446;50.998;6.250;2023-03-05T14:13:38;9.65;;;6.82;;
16665;SDS011;8446;50.998;6.250;2023-03-05T14:16:06;16.00;;;6.95;;
16665;SDS011;8446;50.998;6.250;2023-03-05T14:18:35;11.05;;;6.95;;
16665;SDS011;8446;50.998;6.250;2023-03-05T14:21:03;8.23;;;6.00;;
16665;SDS011;8446;50.998;6.250;2023-03-05T14:23:36;8.73;;;6.20;;
16665;SDS011;8446;50.998;6.250;2023-03-05T14:28:52;10.40;;;5.55;;
16665;SDS011;8446;50.998;6.250;2023-03-05T14:31:20;6.47;;;4.93;;
16665;SDS011;8446;50.998;6.250;2023-03-05T14:33:49;10.32;;;5.75;;
16665;SDS011;8446;50.998;6.250;2023-03-05T14:36:24;9.88;;;6.18;;
16665;SDS011;8446;50.998;6.250;2023-03-05T14:38:51;6.63;;;5.10;;
16665;SDS011;8446;50.998;6.250;2023-03-05T14:41:20;6.47;;;5.75;;
16665;SDS011;8446;50.998;6.250;2023-03-05T14:43:48;6.85;;;5.53;;
16665;SDS011;8446;50.998;6.250;2023-03-05T14:46:15;8.60;;;5.50;;
16665;SDS011;8446;50.998;6.250;2023-03-05T14:48:42;15.82;;;6.25;;
16665;SDS011;8446;50.998;6.250;2023-03-05T14:51:11;17.73;;;5.63;;
16665;SDS011;8446;50.998;6.250;2023-03-05T14:53:39;8.57;;;5.65;;
16665;SDS011;8446;50.998;6.250;2023-03-05T14:56:13;11.40;;;6.35;;
16665;SDS011;8446;50.998;6.250;2023-03-05T14:58:41;7.55;;;5.18;;
16665;SDS011;8446;50.998;6.250;2023-03-05T15:01:09;6.60;;;5.90;;
16665;SDS011;8446;50.998;6.250;2023-03-05T15:03:36;19.50;;;6.40;;
16665;SDS011;8446;50.998;6.250;2023-03-05T15:06:05;9.75;;;6.60;;
16665;SDS011;8446;50.998;6.250;2023-03-05T15:08:34;8.27;;;6.03;;
16665;SDS011;8446;50.998;6.250;2023-03-05T15:11:01;13.73;;;7.07;;
16665;SDS011;8446;50.998;6.250;2023-03-05T15:13:28;5.75;;;5.15;;
16665;SDS011;8446;50.998;6.250;2023-03-05T15:15:55;9.38;;;5.55;;
16665;SDS011;8446;50.998;6.250;2023-03-05T15:18:23;12.00;;;6.32;;
16665;SDS011;8446;50.998;6.250;2023-03-05T15:20:50;10.65;;;6.15;;
16665;SDS011;8446;50.998;6.250;2023-03-05T15:23:17;6.63;;;5.40;;
16665;SDS011;8446;50.998;6.250;2023-03-05T15:25:46;7.75;;;4.68;;